Phoenix, AZ (85017)

1:28 PM MST on August 29, 2015 (GMT -0700)
Phoenix S of Christown | | Change Station
CLOSE
Current Station
Personal Weather Station
Location: Phoenix, AZ
Elevation: 1152 ft
Nearby Weather Stations

Elev 1152 ft 33.51 °N, 112.10 °W | Updated 7 minutes ago

Partly Cloudy
Partly Cloudy
108.3 °F
Feels Like 111 °F
N
0.0
Wind Variable Wind from SSW
Gusts 7.0 mph

Today
High -- | Low -- °F
--% Chance of Precip.
Yesterday
High -- | Low -- °F
Precip. -- in
6:00 AM 6:57 PM
Full, 100% visible
Pressure 29.77 in
Visibility 10.0 miles
Clouds Few 11000 ft
Few 16000 ft
Scattered Clouds 25000 ft
Heat Index 111 °F
Dew Point 62 °F
Humidity 22%
Rainfall 0.00 in
Snow Depth Not available.
UV 9 out of 12
Pollen 5.10 out of 12
Air Quality Not available.
Flu Activity Not available.
METAR KPHX 291951Z COR VRB05KT 10SM FEW110 FEW160 SCT250 41/14 A2983 RMK AO2 SLP079 CB DSNT E SE SW W AND NW-N T04060139
Pressure 29.77 in
Visibility 10.0 miles
Clouds Few 11000 ft
Few 16000 ft
Scattered Clouds 25000 ft
Heat Index 111 °F
Dew Point 62 °F
Humidity 22%
Rainfall 0.00 in
Snow Depth Not available.
UV 9 out of 12
Pollen 5.10 out of 12
Air Quality Not available.
Flu Activity Not available.
METAR KPHX 291951Z COR VRB05KT 10SM FEW110 FEW160 SCT250 41/14 A2983 RMK AO2 SLP079 CB DSNT E SE SW W AND NW-N T04060139

10-Day Weather Forecast

×

Almanac

Astronomy

Aug. 29, 2015 Rise Set
Actual Time
Civil Twilight
Nautical Twilight
Astronomical Twilight
Moon
Length of Visible Light
Length of Day
Tomorrow will be .
, % of the Moon is Illuminated

Today's Extremes

State Highs State Lows

Community

WunderPhotos

Upload Photos

1,850,796 photos uploaded!

WunderBlogs® & News

Nearby

Air Quality

  Air Quality AQ Index Pollutant
Not available.

Snow Depth

Station Depth Elevation

Earthquake Activity

City Distance Mag. Time & Date
Minimum magnitude displayed is 2.5.

Coastal Water Temperatures

Place Temperature

Stations

Nearby Weather Stations

Station Location Temp. Windchill Dew Point Humidity Wind Precip. Elev Updated Type